FMEE/RUN METAR and TAF weather

Enter ICAO airport designator
Station Type Date Time Source
FMEE METAR 2020/09/27 03:30 UTC NOAA

FMEE 270330Z AUTO 12011KT 9999 NCD 23/15 Q1017 NOSIG


Station Type Date Time Source
FMEE Decoded METAR 2020/09/27 03:30 UTC NOAA

Saint-Denis / Gillot, Reunion (FMEE) 20-53S 055-31E 25M
Sep 26, 2020 - 11:30 PM EDT / 2020.09.27 0330 UTC
Wind: from the ESE (120 degrees) at 13 MPH (11 KT):0
Visibility: greater than 7 mile(s):0
Temperature: 73 F (23 C)
Dew Point: 59 F (15 C)
Relative Humidity: 60%
Pressure (altimeter): 30.03 in. Hg (1017 hPa)
ob: FMEE 270330Z AUTO 12011KT 9999 NCD 23/15 Q1017 NOSIG
cycle: 3

Station Type Date Time Source
FMEE TAF 2020/09/26 18:21 UTC NOAA

TAF TAF FMEE 261700Z 2618/2724 15012KT 9999 SCT040 PROB30
TEMPO 2621/2701 4500 SHRA
BECMG 2706/2708 08012KT

Example: see airport list